createdAt,value
2023-03-29T00:03:04.225Z,52.93
2023-03-29T00:05:57.628Z,53.02
2023-03-29T00:08:51.074Z,53.12
2023-03-29T00:11:41.897Z,53.22
2023-03-29T00:14:32.460Z,53.33
2023-03-29T00:17:23.223Z,53.59
2023-03-29T00:20:14.456Z,53.53
2023-03-29T00:23:05.055Z,53.55
2023-03-29T00:25:56.478Z,53.66
2023-03-29T00:28:47.491Z,53.64
2023-03-29T00:31:38.037Z,53.82
2023-03-29T00:34:31.027Z,53.83
2023-03-29T00:37:22.683Z,53.96
2023-03-29T00:40:15.484Z,54.00
2023-03-29T00:43:06.505Z,54.20
2023-03-29T00:45:57.220Z,54.28
2023-03-29T00:48:47.759Z,54.29
2023-03-29T00:51:38.927Z,54.25
2023-03-29T00:54:31.036Z,54.35
2023-03-29T00:57:21.701Z,54.37
2023-03-29T01:00:15.478Z,54.56
2023-03-29T01:03:09.194Z,54.72
2023-03-29T01:06:01.405Z,54.67
2023-03-29T01:08:54.087Z,54.88
2023-03-29T01:11:47.120Z,54.94
2023-03-29T01:14:39.576Z,54.91
2023-03-29T01:17:31.772Z,54.91
2023-03-29T01:20:24.934Z,55.05
2023-03-29T01:23:27.421Z,55.39
2023-03-29T01:26:20.547Z,55.53
2023-03-29T01:29:12.687Z,55.44
2023-03-29T01:32:06.086Z,55.65
2023-03-29T01:34:58.750Z,55.76
2023-03-29T01:37:51.754Z,55.93
2023-03-29T01:40:42.529Z,56.01
2023-03-29T01:43:34.861Z,55.99
2023-03-29T01:46:28.662Z,55.97
2023-03-29T01:49:23.685Z,55.97
2023-03-29T01:52:17.006Z,56.22
2023-03-29T01:55:13.132Z,56.15
2023-03-29T01:58:05.769Z,56.32
2023-03-29T02:00:56.573Z,56.54
2023-03-29T02:03:50.847Z,56.36
2023-03-29T02:06:41.511Z,56.56
2023-03-29T02:09:32.577Z,56.55
2023-03-29T02:12:24.254Z,56.77
2023-03-29T02:15:16.562Z,56.78
2023-03-29T02:18:07.600Z,56.92
2023-03-29T02:20:59.038Z,57.07
2023-03-29T02:23:50.054Z,56.83
2023-03-29T02:26:40.884Z,57.06
2023-03-29T02:29:31.689Z,56.93
2023-03-29T02:32:23.051Z,56.93
2023-03-29T02:35:15.301Z,57.22
2023-03-29T02:38:07.164Z,57.11
2023-03-29T02:40:58.101Z,57.13
2023-03-29T02:43:48.773Z,57.30
2023-03-29T02:46:39.898Z,57.27
2023-03-29T02:49:30.393Z,57.41
2023-03-29T02:52:22.982Z,57.28
2023-03-29T02:55:15.841Z,57.34
2023-03-29T02:58:08.539Z,57.17
2023-03-29T03:01:00.498Z,57.12
2023-03-29T03:03:52.209Z,57.21
2023-03-29T03:06:43.138Z,57.15
2023-03-29T03:09:34.365Z,57.24
2023-03-29T03:12:25.333Z,57.25
2023-03-29T03:15:16.191Z,57.30
2023-03-29T03:18:07.132Z,57.47
2023-03-29T03:21:02.006Z,57.54
2023-03-29T03:23:53.558Z,57.56
2023-03-29T03:26:46.458Z,57.59
2023-03-29T03:29:38.645Z,57.74
2023-03-29T03:36:02.897Z,57.89
2023-03-29T03:38:54.358Z,57.99
2023-03-29T03:41:44.974Z,58.12
2023-03-29T03:44:35.605Z,58.17
2023-03-29T03:47:38.498Z,58.28
2023-03-29T03:50:41.717Z,58.15
2023-03-29T03:53:32.499Z,58.29
2023-03-29T03:56:35.204Z,58.48
2023-03-29T03:59:28.836Z,58.43
2023-03-29T04:02:24.335Z,58.19
2023-03-29T04:05:15.069Z,58.26
2023-03-29T04:08:06.782Z,58.54
2023-03-29T04:11:20.175Z,58.50
2023-03-29T04:14:11.334Z,58.56
2023-03-29T04:17:22.314Z,58.49
2023-03-29T04:20:42.064Z,58.47
2023-03-29T04:23:33.786Z,58.66
2023-03-29T04:26:24.577Z,58.71
2023-03-29T04:29:20.971Z,58.89
2023-03-29T04:32:15.985Z,58.87
2023-03-29T04:35:28.943Z,58.53
2023-03-29T04:38:23.568Z,58.52
2023-03-29T04:41:15.368Z,58.55
2023-03-29T04:44:15.922Z,58.69
2023-03-29T04:47:06.547Z,58.79
2023-03-29T04:49:57.253Z,58.66
2023-03-29T04:53:01.031Z,58.34
2023-03-29T04:55:52.634Z,58.22
2023-03-29T04:58:55.969Z,57.67
2023-03-29T05:01:47.038Z,57.13
2023-03-29T05:04:37.924Z,55.42
2023-03-29T05:07:35.678Z,53.74
2023-03-29T05:10:26.497Z,53.30
2023-03-29T05:13:18.004Z,53.28
2023-03-29T05:16:11.388Z,52.99
2023-03-29T05:19:02.241Z,53.15
2023-03-29T05:21:53.190Z,53.24
2023-03-29T05:24:45.563Z,53.63
2023-03-29T05:27:40.453Z,53.91
2023-03-29T05:30:32.487Z,54.18
2023-03-29T05:33:39.091Z,54.57
2023-03-29T05:36:29.927Z,54.89
2023-03-29T05:39:21.159Z,54.94
2023-03-29T05:42:13.844Z,55.33
2023-03-29T05:45:14.976Z,55.34
2023-03-29T05:48:05.597Z,55.53
2023-03-29T05:50:56.429Z,55.69
2023-03-29T05:53:46.969Z,55.87
2023-03-29T05:56:37.764Z,55.83
2023-03-29T05:59:29.759Z,55.80
2023-03-29T06:02:20.366Z,54.59
2023-03-29T06:05:14.894Z,52.65
2023-03-29T06:08:22.380Z,51.21
2023-03-29T06:11:27.939Z,50.15
2023-03-29T06:14:33.873Z,49.48
2023-03-29T06:17:45.981Z,47.35
2023-03-29T06:20:36.642Z,45.53
2023-03-29T06:23:33.000Z,43.31
2023-03-29T06:26:24.072Z,41.58
2023-03-29T06:29:15.000Z,39.37
2023-03-29T06:32:05.605Z,37.15
2023-03-29T06:35:15.073Z,34.92
2023-03-29T06:38:12.543Z,32.78
2023-03-29T06:41:29.582Z,30.72
2023-03-29T06:44:40.193Z,29.45
2023-03-29T06:47:36.149Z,28.85
2023-03-29T06:50:27.188Z,28.44
2023-03-29T06:53:28.725Z,27.94
2023-03-29T06:56:23.942Z,27.25
2023-03-29T06:59:24.414Z,26.87
2023-03-29T07:02:37.756Z,27.17
2023-03-29T07:05:36.348Z,27.10
2023-03-29T07:08:31.554Z,27.57
2023-03-29T07:11:25.656Z,27.72
2023-03-29T07:14:19.767Z,28.14
2023-03-29T07:17:10.458Z,28.99
2023-03-29T07:20:08.368Z,29.53
2023-03-29T07:23:09.632Z,29.98
2023-03-29T07:26:01.489Z,30.39
2023-03-29T07:28:53.492Z,30.67
2023-03-29T07:31:46.109Z,30.95
2023-03-29T07:34:59.661Z,31.72
2023-03-29T07:37:58.525Z,32.10
2023-03-29T07:40:49.687Z,32.44
2023-03-29T07:43:57.813Z,33.01
2023-03-29T07:46:48.434Z,33.01
2023-03-29T07:49:39.566Z,33.47
2023-03-29T07:52:30.434Z,33.54
2023-03-29T07:55:22.300Z,33.48
2023-03-29T07:58:25.609Z,33.81
2023-03-29T08:01:18.903Z,33.79
2023-03-29T08:04:30.519Z,31.11
2023-03-29T08:07:39.640Z,29.26
2023-03-29T08:10:40.541Z,28.47
2023-03-29T08:13:51.521Z,27.41
2023-03-29T08:16:52.583Z,26.58
2023-03-29T08:19:51.180Z,25.68
2023-03-29T08:22:48.854Z,24.91
2023-03-29T08:26:16.084Z,24.13
2023-03-29T08:29:08.537Z,23.86
2023-03-29T08:32:08.899Z,23.09
2023-03-29T08:34:59.588Z,22.80
2023-03-29T08:37:56.010Z,22.10
2023-03-29T08:40:50.699Z,21.84
2023-03-29T08:43:56.447Z,21.90
2023-03-29T08:47:05.341Z,21.44
2023-03-29T08:50:00.370Z,21.22
2023-03-29T08:52:58.606Z,21.30
2023-03-29T08:56:16.534Z,20.97
2023-03-29T08:59:15.899Z,20.89
2023-03-29T09:02:07.175Z,20.78
2023-03-29T09:05:01.814Z,20.61
2023-03-29T09:08:03.144Z,20.33
2023-03-29T09:11:03.776Z,20.11
2023-03-29T09:13:58.998Z,19.95
2023-03-29T09:16:52.622Z,19.73
2023-03-29T09:19:46.142Z,19.79
2023-03-29T09:22:41.166Z,19.78
2023-03-29T09:25:53.400Z,19.67
2023-03-29T09:28:48.792Z,19.87
2023-03-29T09:31:39.553Z,19.79
2023-03-29T09:34:31.927Z,19.70
2023-03-29T09:37:29.942Z,19.40
2023-03-29T09:40:21.823Z,19.59
2023-03-29T09:43:22.983Z,19.67
2023-03-29T09:46:16.892Z,19.76
2023-03-29T09:49:17.143Z,19.74
2023-03-29T09:52:10.953Z,19.81
2023-03-29T09:55:02.092Z,19.94
2023-03-29T09:58:14.332Z,19.71
2023-03-29T10:01:10.456Z,19.65
2023-03-29T10:04:02.121Z,19.47
2023-03-29T10:06:53.218Z,19.56
2023-03-29T10:09:44.259Z,19.70
2023-03-29T10:12:39.953Z,19.75
2023-03-29T10:15:31.616Z,19.76
2023-03-29T10:18:22.083Z,19.91
2023-03-29T10:21:15.578Z,19.71
2023-03-29T10:24:06.719Z,19.51
2023-03-29T10:26:58.702Z,19.55
2023-03-29T10:29:49.052Z,19.18
2023-03-29T10:32:39.856Z,19.61
2023-03-29T10:35:33.890Z,19.95
2023-03-29T10:38:27.995Z,20.06
2023-03-29T10:41:18.677Z,19.98
2023-03-29T10:44:11.239Z,20.06
2023-03-29T10:47:16.160Z,20.26
2023-03-29T10:50:07.929Z,20.43
2023-03-29T10:52:58.350Z,20.22
2023-03-29T10:55:51.054Z,20.02
2023-03-29T10:58:48.812Z,20.36
2023-03-29T11:01:43.576Z,20.63
2023-03-29T11:04:37.758Z,20.43
2023-03-29T11:07:33.462Z,20.27
2023-03-29T11:10:32.365Z,20.68
2023-03-29T11:13:25.803Z,20.72
2023-03-29T11:16:22.758Z,20.87
2023-03-29T11:19:25.204Z,20.98
2023-03-29T11:22:18.173Z,20.89
2023-03-29T11:25:15.689Z,20.41
2023-03-29T11:28:10.089Z,20.74
2023-03-29T11:31:03.517Z,20.98
2023-03-29T11:34:01.727Z,21.15
2023-03-29T11:36:54.113Z,21.44
2023-03-29T11:39:47.552Z,21.20
2023-03-29T11:42:40.005Z,21.17
2023-03-29T11:45:34.228Z,21.30
2023-03-29T11:48:26.866Z,21.51
2023-03-29T11:51:19.723Z,21.86
2023-03-29T11:54:16.577Z,21.60
2023-03-29T11:57:08.784Z,21.83
2023-03-29T12:00:00.488Z,21.65
2023-03-29T12:02:53.274Z,22.14
2023-03-29T12:05:45.431Z,22.57
2023-03-29T12:08:36.331Z,22.70
2023-03-29T12:11:30.183Z,22.94
2023-03-29T12:14:23.704Z,22.84
2023-03-29T12:17:18.222Z,22.98
2023-03-29T12:20:16.710Z,23.18
2023-03-29T12:23:07.538Z,23.11
2023-03-29T12:26:02.423Z,23.11
2023-03-29T12:29:05.609Z,23.88
2023-03-29T12:31:59.303Z,23.71
2023-03-29T12:35:03.421Z,23.92
2023-03-29T12:38:16.859Z,24.39
2023-03-29T12:41:26.726Z,24.51
2023-03-29T12:44:36.291Z,24.45
2023-03-29T12:47:45.623Z,24.47
2023-03-29T12:50:38.093Z,24.88
2023-03-29T12:53:29.692Z,25.07
2023-03-29T12:56:23.729Z,25.38
2023-03-29T12:59:27.414Z,25.76
2023-03-29T13:02:39.385Z,26.02
2023-03-29T13:05:32.445Z,26.38
2023-03-29T13:08:34.093Z,26.51
2023-03-29T13:11:29.376Z,27.04
2023-03-29T13:14:20.588Z,26.63
2023-03-29T13:17:18.780Z,26.85
2023-03-29T13:20:15.145Z,27.28
2023-03-29T13:23:16.935Z,27.71
2023-03-29T13:26:19.812Z,27.55
2023-03-29T13:29:38.306Z,27.64
2023-03-29T13:32:40.729Z,28.01
2023-03-29T13:35:35.468Z,28.19
2023-03-29T13:38:28.758Z,28.36
2023-03-29T13:41:32.636Z,28.42
2023-03-29T13:44:36.134Z,28.84
2023-03-29T13:47:43.229Z,28.78
2023-03-29T13:50:39.984Z,28.76
2023-03-29T13:53:32.366Z,28.76
2023-03-29T13:56:25.803Z,28.77
2023-03-29T13:59:19.998Z,28.78
2023-03-29T14:02:15.398Z,29.06
2023-03-29T14:05:06.637Z,29.60
2023-03-29T14:07:57.355Z,29.77
2023-03-29T14:10:48.535Z,29.94
2023-03-29T14:13:39.530Z,29.84
2023-03-29T14:16:31.501Z,29.80
2023-03-29T14:19:26.016Z,29.72
2023-03-29T14:22:19.085Z,29.70
2023-03-29T14:25:17.237Z,29.63
2023-03-29T14:28:21.920Z,29.56
2023-03-29T14:31:23.123Z,29.68
2023-03-29T14:34:16.722Z,29.90
2023-03-29T14:37:09.164Z,30.11
2023-03-29T14:40:00.686Z,30.45
2023-03-29T14:42:51.659Z,30.58
2023-03-29T14:45:42.044Z,30.74
2023-03-29T14:48:35.453Z,31.07
2023-03-29T14:51:30.542Z,31.10
2023-03-29T14:54:22.592Z,31.11
2023-03-29T14:57:18.611Z,31.26
2023-03-29T15:00:21.301Z,31.41
2023-03-29T15:03:16.459Z,31.23
2023-03-29T15:06:08.305Z,31.15
2023-03-29T15:09:07.993Z,31.28
2023-03-29T15:12:01.363Z,31.22
2023-03-29T15:14:53.063Z,31.46
2023-03-29T15:17:51.868Z,31.69
2023-03-29T15:20:46.172Z,32.01
2023-03-29T15:23:40.539Z,32.23
2023-03-29T15:26:33.916Z,32.29
2023-03-29T15:29:34.012Z,32.60
2023-03-29T15:32:25.335Z,32.62
2023-03-29T15:35:25.807Z,32.71
2023-03-29T15:38:16.481Z,32.92
2023-03-29T15:41:08.285Z,32.97
2023-03-29T15:43:58.896Z,33.10
2023-03-29T15:46:49.936Z,33.28
2023-03-29T15:49:40.666Z,33.36
2023-03-29T15:52:32.156Z,33.40
2023-03-29T15:55:23.084Z,33.59
2023-03-29T15:58:15.743Z,33.81
2023-03-29T16:01:13.391Z,33.88
2023-03-29T16:04:05.053Z,34.01
2023-03-29T16:06:56.756Z,34.19
2023-03-29T16:09:50.888Z,34.18
2023-03-29T16:12:41.662Z,34.21
2023-03-29T16:15:33.579Z,34.26
2023-03-29T16:18:24.520Z,34.39
2023-03-29T16:21:20.307Z,34.42
2023-03-29T16:24:13.408Z,34.44
2023-03-29T16:27:12.432Z,34.52
2023-03-29T16:30:06.261Z,34.45
2023-03-29T16:32:57.207Z,34.56
2023-03-29T16:35:48.388Z,34.59
2023-03-29T16:38:39.563Z,34.41
2023-03-29T16:41:31.678Z,34.30
2023-03-29T16:44:25.923Z,34.13
2023-03-29T16:47:17.753Z,34.14
2023-03-29T16:50:12.241Z,34.27
2023-03-29T16:53:03.283Z,34.35
2023-03-29T16:55:53.871Z,34.44
2023-03-29T16:58:44.739Z,34.57
2023-03-29T17:01:36.342Z,34.67
2023-03-29T17:04:27.293Z,34.77
2023-03-29T17:07:17.892Z,34.90
2023-03-29T17:10:09.857Z,34.98
2023-03-29T17:13:00.927Z,35.08
2023-03-29T17:15:52.509Z,35.23
2023-03-29T17:18:43.622Z,35.31
2023-03-29T17:21:34.396Z,35.52
2023-03-29T17:24:24.939Z,35.71
2023-03-29T17:27:15.481Z,35.86
2023-03-29T17:30:06.335Z,35.94
2023-03-29T17:32:57.684Z,35.86
2023-03-29T17:35:48.637Z,36.08
2023-03-29T17:38:39.327Z,36.06
2023-03-29T17:41:31.335Z,36.21
2023-03-29T17:44:22.242Z,36.38
2023-03-29T17:47:15.680Z,36.61
2023-03-29T17:50:06.849Z,36.63
2023-03-29T17:52:57.546Z,36.93
2023-03-29T17:55:48.167Z,37.01
2023-03-29T17:58:41.328Z,37.13
2023-03-29T18:01:33.523Z,37.16
2023-03-29T18:08:11.365Z,37.60
2023-03-29T18:11:09.921Z,37.87
2023-03-29T18:14:01.802Z,38.08
2023-03-29T18:16:52.251Z,37.96
2023-03-29T18:19:42.742Z,37.77
2023-03-29T18:22:34.280Z,37.80
2023-03-29T18:25:25.250Z,37.64
2023-03-29T18:28:15.939Z,37.80
2023-03-29T18:31:07.057Z,37.96
2023-03-29T18:33:57.803Z,37.94
2023-03-29T18:36:51.157Z,38.37
2023-03-29T18:39:43.048Z,38.31
2023-03-29T18:42:33.852Z,38.36
2023-03-29T18:45:24.558Z,38.39
2023-03-29T18:48:15.644Z,38.64
2023-03-29T18:51:07.499Z,38.61
2023-03-29T18:53:58.467Z,38.76
2023-03-29T18:56:48.901Z,38.97
2023-03-29T18:59:39.629Z,38.99
2023-03-29T19:02:30.809Z,39.14
2023-03-29T19:05:21.642Z,39.31
2023-03-29T19:08:13.368Z,38.98
2023-03-29T19:11:04.972Z,39.02
2023-03-29T19:13:55.213Z,39.35
2023-03-29T19:16:45.929Z,39.53
2023-03-29T19:19:37.810Z,39.48
2023-03-29T19:22:28.340Z,39.87
2023-03-29T19:25:19.137Z,39.59
2023-03-29T19:28:10.485Z,40.11
2023-03-29T19:31:02.289Z,40.31
2023-03-29T19:33:53.563Z,40.33
2023-03-29T19:36:44.139Z,40.38
2023-03-29T19:39:35.708Z,40.49
2023-03-29T19:42:26.692Z,40.72
2023-03-29T19:45:23.528Z,40.39
2023-03-29T19:48:21.773Z,40.35
2023-03-29T19:51:16.841Z,40.39
2023-03-29T19:54:07.991Z,40.67
2023-03-29T19:56:58.683Z,40.69
2023-03-29T19:59:49.141Z,40.69
2023-03-29T20:02:40.089Z,40.94
2023-03-29T20:05:30.381Z,41.19
2023-03-29T20:08:21.113Z,41.06
2023-03-29T20:11:11.802Z,41.15
2023-03-29T20:14:02.445Z,41.08
2023-03-29T20:16:54.160Z,41.53
2023-03-29T20:19:45.085Z,41.59
2023-03-29T20:22:38.096Z,41.90
2023-03-29T20:25:28.753Z,41.95
2023-03-29T20:28:19.783Z,41.86
2023-03-29T20:31:11.839Z,41.90
2023-03-29T20:34:02.637Z,42.30
2023-03-29T20:36:55.222Z,42.08
2023-03-29T20:39:46.301Z,42.14
2023-03-29T20:42:39.394Z,42.46
2023-03-29T20:45:33.220Z,42.73
2023-03-29T20:48:31.345Z,42.62
2023-03-29T20:51:21.575Z,42.89
2023-03-29T20:54:12.047Z,42.93
2023-03-29T20:57:02.411Z,43.04
2023-03-29T20:59:53.327Z,42.85
2023-03-29T21:02:44.263Z,43.45
2023-03-29T21:05:34.926Z,43.55
2023-03-29T21:08:28.899Z,43.56
2023-03-29T21:11:19.945Z,43.60
2023-03-29T21:14:10.605Z,44.01
2023-03-29T21:17:01.519Z,43.97
2023-03-29T21:19:53.213Z,44.06
2023-03-29T21:22:44.146Z,44.19
2023-03-29T21:25:34.770Z,44.31
2023-03-29T21:28:25.616Z,44.32
2023-03-29T21:31:16.142Z,44.44
2023-03-29T21:34:06.512Z,44.66
2023-03-29T21:36:57.278Z,44.60
2023-03-29T21:39:48.050Z,44.76
2023-03-29T21:42:38.871Z,45.13
2023-03-29T21:45:30.069Z,45.06
2023-03-29T21:48:20.739Z,45.25
2023-03-29T21:51:11.665Z,45.40
2023-03-29T21:54:02.357Z,45.51
2023-03-29T21:56:53.016Z,45.60
2023-03-29T21:59:43.583Z,45.66
2023-03-29T22:02:34.209Z,45.87
2023-03-29T22:05:26.131Z,46.06
2023-03-29T22:08:19.081Z,46.09
2023-03-29T22:11:10.993Z,46.11
2023-03-29T22:14:01.934Z,46.26
2023-03-29T22:16:52.757Z,46.34
2023-03-29T22:19:43.753Z,46.29
2023-03-29T22:22:35.153Z,46.40
2023-03-29T22:25:25.713Z,46.60
2023-03-29T22:28:16.395Z,46.57
2023-03-29T22:31:07.599Z,46.76
2023-03-29T22:34:00.717Z,46.97
2023-03-29T22:36:51.804Z,46.95
2023-03-29T22:39:42.396Z,46.98
2023-03-29T22:42:32.804Z,46.95
2023-03-29T22:45:23.682Z,46.99
2023-03-29T22:48:14.389Z,47.10
2023-03-29T22:51:05.689Z,47.21
2023-03-29T22:53:56.639Z,47.31
2023-03-29T22:56:47.159Z,47.33
2023-03-29T22:59:37.671Z,47.42
2023-03-29T23:02:28.546Z,47.58
2023-03-29T23:05:19.601Z,47.71
2023-03-29T23:08:10.421Z,47.73
2023-03-29T23:11:01.439Z,47.64
2023-03-29T23:13:52.664Z,47.67
2023-03-29T23:16:43.564Z,47.74
2023-03-29T23:19:34.069Z,48.07
2023-03-29T23:22:24.445Z,48.10
2023-03-29T23:25:15.068Z,48.21
2023-03-29T23:28:06.598Z,48.26
2023-03-29T23:31:02.912Z,48.29
2023-03-29T23:33:54.140Z,48.35
2023-03-29T23:36:44.600Z,48.48
2023-03-29T23:39:35.844Z,48.57
2023-03-29T23:42:26.712Z,48.89
2023-03-29T23:45:18.911Z,48.81
2023-03-29T23:48:09.794Z,48.86
2023-03-29T23:51:01.353Z,49.05
2023-03-29T23:53:52.374Z,49.09
2023-03-29T23:56:43.107Z,48.89
2023-03-29T23:59:37.749Z,48.99
